sensor_id;sensor_type;location;lat;lon;timestamp;P1;durP1;ratioP1;P2;durP2;ratioP2
33987;SDS011;37428;53.580;-1.666;2023-07-31T00:03:03;0.43;;;0.43;;
33987;SDS011;37428;53.580;-1.666;2023-07-31T00:06:32;1.40;;;0.68;;
33987;SDS011;37428;53.580;-1.666;2023-07-31T00:09:34;2.08;;;0.68;;
33987;SDS011;37428;53.580;-1.666;2023-07-31T00:12:51;0.50;;;0.50;;
33987;SDS011;37428;53.580;-1.666;2023-07-31T00:16:24;3.80;;;0.70;;
33987;SDS011;37428;53.580;-1.666;2023-07-31T00:19:19;1.38;;;0.80;;
33987;SDS011;37428;53.580;-1.666;2023-07-31T00:22:39;0.95;;;0.80;;
33987;SDS011;37428;53.580;-1.666;2023-07-31T00:25:44;1.63;;;0.57;;
33987;SDS011;37428;53.580;-1.666;2023-07-31T00:28:46;2.25;;;0.52;;
33987;SDS011;37428;53.580;-1.666;2023-07-31T00:31:48;1.23;;;0.70;;
33987;SDS011;37428;53.580;-1.666;2023-07-31T00:34:50;0.57;;;0.52;;
33987;SDS011;37428;53.580;-1.666;2023-07-31T00:37:57;1.70;;;0.70;;
33987;SDS011;37428;53.580;-1.666;2023-07-31T00:41:00;0.70;;;0.60;;
33987;SDS011;37428;53.580;-1.666;2023-07-31T00:44:05;1.95;;;0.60;;
33987;SDS011;37428;53.580;-1.666;2023-07-31T00:47:07;0.95;;;0.60;;
33987;SDS011;37428;53.580;-1.666;2023-07-31T00:50:16;2.53;;;0.50;;
33987;SDS011;37428;53.580;-1.666;2023-07-31T00:53:22;0.52;;;0.40;;
33987;SDS011;37428;53.580;-1.666;2023-07-31T00:56:34;1.38;;;0.38;;
33987;SDS011;37428;53.580;-1.666;2023-07-31T01:00:09;2.15;;;0.40;;
33987;SDS011;37428;53.580;-1.666;2023-07-31T01:03:03;2.33;;;0.55;;
33987;SDS011;37428;53.580;-1.666;2023-07-31T01:06:26;1.05;;;0.57;;
33987;SDS011;37428;53.580;-1.666;2023-07-31T01:09:44;2.10;;;0.30;;
33987;SDS011;37428;53.580;-1.666;2023-07-31T01:12:56;4.57;;;0.40;;
33987;SDS011;37428;53.580;-1.666;2023-07-31T01:16:00;0.63;;;0.30;;
33987;SDS011;37428;53.580;-1.666;2023-07-31T01:19:03;0.43;;;0.40;;
33987;SDS011;37428;53.580;-1.666;2023-07-31T01:29:02;1.58;;;0.40;;
33987;SDS011;37428;53.580;-1.666;2023-07-31T01:32:12;0.30;;;0.30;;
33987;SDS011;37428;53.580;-1.666;2023-07-31T01:35:19;0.30;;;0.30;;
33987;SDS011;37428;53.580;-1.666;2023-07-31T01:38:22;4.03;;;0.57;;
33987;SDS011;37428;53.580;-1.666;2023-07-31T01:44:59;0.35;;;0.32;;
33987;SDS011;37428;53.580;-1.666;2023-07-31T01:48:01;0.65;;;0.28;;
33987;SDS011;37428;53.580;-1.666;2023-07-31T01:51:03;0.20;;;0.20;;
33987;SDS011;37428;53.580;-1.666;2023-07-31T01:54:05;1.40;;;0.30;;
33987;SDS011;37428;53.580;-1.666;2023-07-31T01:57:09;0.30;;;0.30;;
33987;SDS011;37428;53.580;-1.666;2023-07-31T02:00:11;0.85;;;0.85;;
33987;SDS011;37428;53.580;-1.666;2023-07-31T02:03:15;0.50;;;0.40;;
33987;SDS011;37428;53.580;-1.666;2023-07-31T02:09:33;0.90;;;0.40;;
33987;SDS011;37428;53.580;-1.666;2023-07-31T02:12:43;0.70;;;0.55;;
33987;SDS011;37428;53.580;-1.666;2023-07-31T02:15:47;0.57;;;0.57;;
33987;SDS011;37428;53.580;-1.666;2023-07-31T02:18:50;1.50;;;0.90;;
33987;SDS011;37428;53.580;-1.666;2023-07-31T02:22:03;0.85;;;0.80;;
33987;SDS011;37428;53.580;-1.666;2023-07-31T02:25:05;1.77;;;1.02;;
33987;SDS011;37428;53.580;-1.666;2023-07-31T02:28:09;1.95;;;0.70;;
33987;SDS011;37428;53.580;-1.666;2023-07-31T02:31:12;1.40;;;0.73;;
33987;SDS011;37428;53.580;-1.666;2023-07-31T02:34:19;0.63;;;0.63;;
33987;SDS011;37428;53.580;-1.666;2023-07-31T02:37:21;0.60;;;0.60;;
33987;SDS011;37428;53.580;-1.666;2023-07-31T02:40:23;0.57;;;0.57;;
33987;SDS011;37428;53.580;-1.666;2023-07-31T02:43:27;0.93;;;0.90;;
33987;SDS011;37428;53.580;-1.666;2023-07-31T02:46:31;1.17;;;1.08;;
33987;SDS011;37428;53.580;-1.666;2023-07-31T02:49:39;1.55;;;1.50;;
33987;SDS011;37428;53.580;-1.666;2023-07-31T02:52:41;1.80;;;1.70;;
33987;SDS011;37428;53.580;-1.666;2023-07-31T02:55:43;1.77;;;1.67;;
33987;SDS011;37428;53.580;-1.666;2023-07-31T02:58:54;2.03;;;1.92;;
33987;SDS011;37428;53.580;-1.666;2023-07-31T03:05:00;3.13;;;2.92;;
33987;SDS011;37428;53.580;-1.666;2023-07-31T03:08:03;3.17;;;2.97;;
33987;SDS011;37428;53.580;-1.666;2023-07-31T03:11:07;2.92;;;2.72;;
33987;SDS011;37428;53.580;-1.666;2023-07-31T03:14:14;3.30;;;2.72;;
33987;SDS011;37428;53.580;-1.666;2023-07-31T03:17:18;2.70;;;2.50;;
33987;SDS011;37428;53.580;-1.666;2023-07-31T03:20:20;3.42;;;2.40;;
33987;SDS011;37428;53.580;-1.666;2023-07-31T03:23:22;3.08;;;2.88;;
33987;SDS011;37428;53.580;-1.666;2023-07-31T03:26:27;3.17;;;2.97;;
33987;SDS011;37428;53.580;-1.666;2023-07-31T03:29:31;3.75;;;3.45;;
33987;SDS011;37428;53.580;-1.666;2023-07-31T03:32:43;4.45;;;4.07;;
33987;SDS011;37428;53.580;-1.666;2023-07-31T03:35:46;4.47;;;4.10;;
33987;SDS011;37428;53.580;-1.666;2023-07-31T03:38:48;4.50;;;4.20;;
33987;SDS011;37428;53.580;-1.666;2023-07-31T03:41:50;4.07;;;3.78;;
33987;SDS011;37428;53.580;-1.666;2023-07-31T03:45:00;2.35;;;2.20;;
33987;SDS011;37428;53.580;-1.666;2023-07-31T03:48:27;4.05;;;2.33;;
33987;SDS011;37428;53.580;-1.666;2023-07-31T03:51:30;1.88;;;1.77;;
33987;SDS011;37428;53.580;-1.666;2023-07-31T03:54:32;0.98;;;0.98;;
33987;SDS011;37428;53.580;-1.666;2023-07-31T03:57:35;1.23;;;1.00;;
33987;SDS011;37428;53.580;-1.666;2023-07-31T04:00:40;1.75;;;0.80;;
33987;SDS011;37428;53.580;-1.666;2023-07-31T04:03:42;1.10;;;1.00;;
33987;SDS011;37428;53.580;-1.666;2023-07-31T04:06:44;1.95;;;1.70;;
33987;SDS011;37428;53.580;-1.666;2023-07-31T04:09:46;2.20;;;2.10;;
33987;SDS011;37428;53.580;-1.666;2023-07-31T04:12:49;3.10;;;2.90;;
33987;SDS011;37428;53.580;-1.666;2023-07-31T04:15:55;3.80;;;3.60;;
33987;SDS011;37428;53.580;-1.666;2023-07-31T04:18:57;3.47;;;3.28;;
33987;SDS011;37428;53.580;-1.666;2023-07-31T04:22:30;3.63;;;3.40;;
33987;SDS011;37428;53.580;-1.666;2023-07-31T04:25:36;6.07;;;4.78;;
33987;SDS011;37428;53.580;-1.666;2023-07-31T04:28:38;6.40;;;5.82;;
33987;SDS011;37428;53.580;-1.666;2023-07-31T04:31:42;7.00;;;6.50;;
33987;SDS011;37428;53.580;-1.666;2023-07-31T04:34:45;6.05;;;5.55;;
33987;SDS011;37428;53.580;-1.666;2023-07-31T04:37:47;5.57;;;5.18;;
33987;SDS011;37428;53.580;-1.666;2023-07-31T04:40:53;5.13;;;4.82;;
33987;SDS011;37428;53.580;-1.666;2023-07-31T04:43:56;4.97;;;4.50;;
33987;SDS011;37428;53.580;-1.666;2023-07-31T04:47:01;5.85;;;5.45;;
33987;SDS011;37428;53.580;-1.666;2023-07-31T04:50:05;6.75;;;6.15;;
33987;SDS011;37428;53.580;-1.666;2023-07-31T04:53:08;6.40;;;5.80;;
33987;SDS011;37428;53.580;-1.666;2023-07-31T04:56:10;5.68;;;5.28;;
33987;SDS011;37428;53.580;-1.666;2023-07-31T04:59:13;4.53;;;4.18;;
33987;SDS011;37428;53.580;-1.666;2023-07-31T05:02:20;4.53;;;4.20;;
33987;SDS011;37428;53.580;-1.666;2023-07-31T05:05:24;3.58;;;3.35;;
33987;SDS011;37428;53.580;-1.666;2023-07-31T05:08:27;2.47;;;2.33;;
33987;SDS011;37428;53.580;-1.666;2023-07-31T05:11:35;2.22;;;1.30;;
33987;SDS011;37428;53.580;-1.666;2023-07-31T05:14:37;1.25;;;1.13;;
33987;SDS011;37428;53.580;-1.666;2023-07-31T05:17:43;0.77;;;0.77;;
33987;SDS011;37428;53.580;-1.666;2023-07-31T05:20:59;1.05;;;0.75;;
33987;SDS011;37428;53.580;-1.666;2023-07-31T05:24:04;0.70;;;0.70;;
33987;SDS011;37428;53.580;-1.666;2023-07-31T05:27:12;0.60;;;0.60;;
33987;SDS011;37428;53.580;-1.666;2023-07-31T05:30:30;2.15;;;0.82;;
33987;SDS011;37428;53.580;-1.666;2023-07-31T05:33:45;2.65;;;2.03;;
33987;SDS011;37428;53.580;-1.666;2023-07-31T05:36:47;1.73;;;1.63;;
33987;SDS011;37428;53.580;-1.666;2023-07-31T05:39:49;2.80;;;2.60;;
33987;SDS011;37428;53.580;-1.666;2023-07-31T05:42:52;3.60;;;3.30;;
33987;SDS011;37428;53.580;-1.666;2023-07-31T05:45:54;4.10;;;3.80;;
33987;SDS011;37428;53.580;-1.666;2023-07-31T05:48:58;4.25;;;3.97;;
33987;SDS011;37428;53.580;-1.666;2023-07-31T05:52:00;2.92;;;2.72;;
33987;SDS011;37428;53.580;-1.666;2023-07-31T05:55:33;3.92;;;2.38;;
33987;SDS011;37428;53.580;-1.666;2023-07-31T05:58:35;2.20;;;2.10;;
33987;SDS011;37428;53.580;-1.666;2023-07-31T06:01:38;2.95;;;2.75;;
33987;SDS011;37428;53.580;-1.666;2023-07-31T06:04:41;1.48;;;1.38;;
33987;SDS011;37428;53.580;-1.666;2023-07-31T06:07:44;1.42;;;1.30;;
33987;SDS011;37428;53.580;-1.666;2023-07-31T06:10:46;1.80;;;1.60;;
33987;SDS011;37428;53.580;-1.666;2023-07-31T06:13:58;2.00;;;1.90;;
33987;SDS011;37428;53.580;-1.666;2023-07-31T06:17:04;2.33;;;2.22;;
33987;SDS011;37428;53.580;-1.666;2023-07-31T06:20:16;2.28;;;2.08;;
33987;SDS011;37428;53.580;-1.666;2023-07-31T06:23:19;2.42;;;2.22;;
33987;SDS011;37428;53.580;-1.666;2023-07-31T06:26:21;2.22;;;2.03;;
33987;SDS011;37428;53.580;-1.666;2023-07-31T06:29:24;2.47;;;2.17;;
33987;SDS011;37428;53.580;-1.666;2023-07-31T06:32:26;2.40;;;2.30;;
33987;SDS011;37428;53.580;-1.666;2023-07-31T06:35:31;2.20;;;2.10;;
33987;SDS011;37428;53.580;-1.666;2023-07-31T06:38:33;2.00;;;1.90;;
33987;SDS011;37428;53.580;-1.666;2023-07-31T06:41:37;2.38;;;2.28;;
33987;SDS011;37428;53.580;-1.666;2023-07-31T06:47:49;3.33;;;3.13;;
33987;SDS011;37428;53.580;-1.666;2023-07-31T06:51:16;1.60;;;1.50;;
33987;SDS011;37428;53.580;-1.666;2023-07-31T06:54:18;1.20;;;1.02;;
33987;SDS011;37428;53.580;-1.666;2023-07-31T06:57:22;1.23;;;0.50;;
33987;SDS011;37428;53.580;-1.666;2023-07-31T07:00:26;1.27;;;0.50;;
33987;SDS011;37428;53.580;-1.666;2023-07-31T07:03:32;0.20;;;0.20;;
33987;SDS011;37428;53.580;-1.666;2023-07-31T07:06:35;0.38;;;0.38;;
33987;SDS011;37428;53.580;-1.666;2023-07-31T07:09:37;0.30;;;0.30;;
33987;SDS011;37428;53.580;-1.666;2023-07-31T07:12:40;1.40;;;0.40;;
33987;SDS011;37428;53.580;-1.666;2023-07-31T07:15:42;0.30;;;0.20;;
33987;SDS011;37428;53.580;-1.666;2023-07-31T07:18:44;0.43;;;0.30;;
33987;SDS011;37428;53.580;-1.666;2023-07-31T07:25:06;0.35;;;0.35;;
33987;SDS011;37428;53.580;-1.666;2023-07-31T07:28:14;2.30;;;1.30;;
33987;SDS011;37428;53.580;-1.666;2023-07-31T07:31:19;4.30;;;3.70;;
33987;SDS011;37428;53.580;-1.666;2023-07-31T07:34:22;5.15;;;3.97;;
33987;SDS011;37428;53.580;-1.666;2023-07-31T07:37:26;5.60;;;3.28;;
33987;SDS011;37428;53.580;-1.666;2023-07-31T07:40:28;3.40;;;3.10;;
33987;SDS011;37428;53.580;-1.666;2023-07-31T07:43:32;2.42;;;1.90;;
33987;SDS011;37428;53.580;-1.666;2023-07-31T07:46:48;1.02;;;0.95;;
33987;SDS011;37428;53.580;-1.666;2023-07-31T07:49:51;0.93;;;0.80;;
33987;SDS011;37428;53.580;-1.666;2023-07-31T07:52:55;1.98;;;1.25;;
33987;SDS011;37428;53.580;-1.666;2023-07-31T07:55:59;2.65;;;1.25;;
33987;SDS011;37428;53.580;-1.666;2023-07-31T07:59:16;1.23;;;1.13;;
33987;SDS011;37428;53.580;-1.666;2023-07-31T08:02:18;2.40;;;1.02;;
33987;SDS011;37428;53.580;-1.666;2023-07-31T08:05:20;1.02;;;0.88;;
33987;SDS011;37428;53.580;-1.666;2023-07-31T08:08:24;2.08;;;1.02;;
33987;SDS011;37428;53.580;-1.666;2023-07-31T08:11:27;1.73;;;1.00;;
33987;SDS011;37428;53.580;-1.666;2023-07-31T08:14:33;2.33;;;1.60;;
33987;SDS011;37428;53.580;-1.666;2023-07-31T08:17:51;2.47;;;1.20;;
33987;SDS011;37428;53.580;-1.666;2023-07-31T08:20:55;1.77;;;1.55;;
33987;SDS011;37428;53.580;-1.666;2023-07-31T08:24:07;1.92;;;1.42;;
33987;SDS011;37428;53.580;-1.666;2023-07-31T08:27:11;2.45;;;2.10;;
33987;SDS011;37428;53.580;-1.666;2023-07-31T08:30:18;2.25;;;2.03;;
33987;SDS011;37428;53.580;-1.666;2023-07-31T08:33:33;2.70;;;2.47;;
33987;SDS011;37428;53.580;-1.666;2023-07-31T08:36:40;2.75;;;2.55;;
33987;SDS011;37428;53.580;-1.666;2023-07-31T08:39:44;4.05;;;2.15;;
33987;SDS011;37428;53.580;-1.666;2023-07-31T08:43:01;3.38;;;2.90;;
33987;SDS011;37428;53.580;-1.666;2023-07-31T08:46:17;4.28;;;3.60;;
33987;SDS011;37428;53.580;-1.666;2023-07-31T08:49:24;5.15;;;4.60;;
33987;SDS011;37428;53.580;-1.666;2023-07-31T08:52:49;5.57;;;4.78;;
33987;SDS011;37428;53.580;-1.666;2023-07-31T08:56:07;6.07;;;4.63;;
33987;SDS011;37428;53.580;-1.666;2023-07-31T08:59:17;7.57;;;4.85;;
33987;SDS011;37428;53.580;-1.666;2023-07-31T09:02:44;8.48;;;5.03;;
33987;SDS011;37428;53.580;-1.666;2023-07-31T09:05:49;6.82;;;5.40;;
33987;SDS011;37428;53.580;-1.666;2023-07-31T09:09:10;7.13;;;5.47;;
33987;SDS011;37428;53.580;-1.666;2023-07-31T09:12:24;5.68;;;4.20;;
33987;SDS011;37428;53.580;-1.666;2023-07-31T09:15:34;5.72;;;3.40;;
33987;SDS011;37428;53.580;-1.666;2023-07-31T09:22:05;7.75;;;4.00;;
33987;SDS011;37428;53.580;-1.666;2023-07-31T09:25:20;4.13;;;3.83;;
33987;SDS011;37428;53.580;-1.666;2023-07-31T09:28:37;7.00;;;4.30;;
33987;SDS011;37428;53.580;-1.666;2023-07-31T09:31:39;4.35;;;3.75;;
33987;SDS011;37428;53.580;-1.666;2023-07-31T09:34:58;4.88;;;3.95;;
33987;SDS011;37428;53.580;-1.666;2023-07-31T09:38:09;5.22;;;3.50;;
33987;SDS011;37428;53.580;-1.666;2023-07-31T09:41:26;6.45;;;4.47;;
33987;SDS011;37428;53.580;-1.666;2023-07-31T09:47:52;7.45;;;3.97;;
33987;SDS011;37428;53.580;-1.666;2023-07-31T09:53:58;3.50;;;3.20;;
33987;SDS011;37428;53.580;-1.666;2023-07-31T09:57:04;4.22;;;3.40;;
33987;SDS011;37428;53.580;-1.666;2023-07-31T10:03:44;5.55;;;3.67;;
33987;SDS011;37428;53.580;-1.666;2023-07-31T10:07:04;5.68;;;4.03;;
33987;SDS011;37428;53.580;-1.666;2023-07-31T10:10:07;7.50;;;4.30;;
33987;SDS011;37428;53.580;-1.666;2023-07-31T10:13:10;5.00;;;3.70;;
33987;SDS011;37428;53.580;-1.666;2023-07-31T10:16:18;6.75;;;4.38;;
33987;SDS011;37428;53.580;-1.666;2023-07-31T10:19:22;3.80;;;3.50;;
33987;SDS011;37428;53.580;-1.666;2023-07-31T10:22:43;4.25;;;3.65;;
33987;SDS011;37428;53.580;-1.666;2023-07-31T10:25:47;7.43;;;4.45;;
33987;SDS011;37428;53.580;-1.666;2023-07-31T10:28:51;5.75;;;3.80;;
33987;SDS011;37428;53.580;-1.666;2023-07-31T10:32:01;5.13;;;4.60;;
33987;SDS011;37428;53.580;-1.666;2023-07-31T10:35:18;4.65;;;4.25;;
33987;SDS011;37428;53.580;-1.666;2023-07-31T10:38:23;4.13;;;3.67;;
33987;SDS011;37428;53.580;-1.666;2023-07-31T10:43:03;3.78;;;3.30;;
33987;SDS011;37428;53.580;-1.666;2023-07-31T10:44:59;3.13;;;2.83;;
33987;SDS011;37428;53.580;-1.666;2023-07-31T10:48:12;3.38;;;3.08;;
33987;SDS011;37428;53.580;-1.666;2023-07-31T10:51:24;9.13;;;4.27;;
33987;SDS011;37428;53.580;-1.666;2023-07-31T10:58:32;7.63;;;6.15;;
33987;SDS011;37428;53.580;-1.666;2023-07-31T11:02:03;6.47;;;5.85;;
33987;SDS011;37428;53.580;-1.666;2023-07-31T11:05:09;8.63;;;7.00;;
33987;SDS011;37428;53.580;-1.666;2023-07-31T11:08:14;8.18;;;7.15;;
33987;SDS011;37428;53.580;-1.666;2023-07-31T11:11:18;7.40;;;6.65;;
33987;SDS011;37428;53.580;-1.666;2023-07-31T11:14:27;6.63;;;6.13;;
33987;SDS011;37428;53.580;-1.666;2023-07-31T11:17:32;3.63;;;3.38;;
33987;SDS011;37428;53.580;-1.666;2023-07-31T11:24:03;5.60;;;4.00;;
33987;SDS011;37428;53.580;-1.666;2023-07-31T11:27:07;5.90;;;4.85;;
33987;SDS011;37428;53.580;-1.666;2023-07-31T11:30:11;7.20;;;6.50;;
33987;SDS011;37428;53.580;-1.666;2023-07-31T11:33:14;7.20;;;6.50;;
33987;SDS011;37428;53.580;-1.666;2023-07-31T11:36:20;6.25;;;5.68;;
33987;SDS011;37428;53.580;-1.666;2023-07-31T11:39:22;5.07;;;4.68;;
33987;SDS011;37428;53.580;-1.666;2023-07-31T11:42:34;7.00;;;4.82;;
33987;SDS011;37428;53.580;-1.666;2023-07-31T11:46:01;4.85;;;3.90;;
33987;SDS011;37428;53.580;-1.666;2023-07-31T11:49:12;7.43;;;5.82;;
33987;SDS011;37428;53.580;-1.666;2023-07-31T11:52:24;7.45;;;5.78;;
33987;SDS011;37428;53.580;-1.666;2023-07-31T11:56:02;6.80;;;4.67;;
33987;SDS011;37428;53.580;-1.666;2023-07-31T11:59:08;6.75;;;4.65;;
33987;SDS011;37428;53.580;-1.666;2023-07-31T12:02:34;5.97;;;4.35;;
33987;SDS011;37428;53.580;-1.666;2023-07-31T12:05:39;4.97;;;4.57;;
33987;SDS011;37428;53.580;-1.666;2023-07-31T12:08:45;6.10;;;4.78;;
33987;SDS011;37428;53.580;-1.666;2023-07-31T12:11:49;6.25;;;4.82;;
33987;SDS011;37428;53.580;-1.666;2023-07-31T12:15:13;5.18;;;4.68;;
33987;SDS011;37428;53.580;-1.666;2023-07-31T12:18:20;6.38;;;4.60;;
33987;SDS011;37428;53.580;-1.666;2023-07-31T12:21:39;4.85;;;4.45;;
33987;SDS011;37428;53.580;-1.666;2023-07-31T12:24:43;8.48;;;4.30;;
33987;SDS011;37428;53.580;-1.666;2023-07-31T12:27:46;5.50;;;4.43;;
33987;SDS011;37428;53.580;-1.666;2023-07-31T12:31:19;5.20;;;4.72;;
33987;SDS011;37428;53.580;-1.666;2023-07-31T12:34:28;5.88;;;5.03;;
33987;SDS011;37428;53.580;-1.666;2023-07-31T12:37:31;3.70;;;3.17;;
33987;SDS011;37428;53.580;-1.666;2023-07-31T12:40:40;5.47;;;3.33;;
33987;SDS011;37428;53.580;-1.666;2023-07-31T12:43:44;5.57;;;3.03;;
33987;SDS011;37428;53.580;-1.666;2023-07-31T12:46:47;3.95;;;2.97;;
33987;SDS011;37428;53.580;-1.666;2023-07-31T12:49:49;5.53;;;3.97;;
33987;SDS011;37428;53.580;-1.666;2023-07-31T12:52:53;6.97;;;2.92;;
33987;SDS011;37428;53.580;-1.666;2023-07-31T12:56:13;5.50;;;2.47;;
33987;SDS011;37428;53.580;-1.666;2023-07-31T12:59:23;5.88;;;2.42;;
33987;SDS011;37428;53.580;-1.666;2023-07-31T13:02:39;5.10;;;1.83;;
33987;SDS011;37428;53.580;-1.666;2023-07-31T13:06:01;4.82;;;1.52;;
33987;SDS011;37428;53.580;-1.666;2023-07-31T13:09:07;2.47;;;1.25;;
33987;SDS011;37428;53.580;-1.666;2023-07-31T13:12:23;1.98;;;1.48;;
33987;SDS011;37428;53.580;-1.666;2023-07-31T13:15:59;3.47;;;2.00;;
33987;SDS011;37428;53.580;-1.666;2023-07-31T13:19:01;5.03;;;2.70;;
33987;SDS011;37428;53.580;-1.666;2023-07-31T13:22:15;5.05;;;4.05;;
33987;SDS011;37428;53.580;-1.666;2023-07-31T13:25:38;5.15;;;3.72;;
33987;SDS011;37428;53.580;-1.666;2023-07-31T13:32:05;4.38;;;3.50;;
33987;SDS011;37428;53.580;-1.666;2023-07-31T13:35:10;4.32;;;2.92;;
33987;SDS011;37428;53.580;-1.666;2023-07-31T13:38:22;4.30;;;2.50;;
33987;SDS011;37428;53.580;-1.666;2023-07-31T13:41:26;5.72;;;2.33;;
33987;SDS011;37428;53.580;-1.666;2023-07-31T13:44:31;7.63;;;2.28;;
33987;SDS011;37428;53.580;-1.666;2023-07-31T13:47:35;4.15;;;1.92;;
33987;SDS011;37428;53.580;-1.666;2023-07-31T13:50:43;4.15;;;2.10;;
33987;SDS011;37428;53.580;-1.666;2023-07-31T13:54:06;4.80;;;2.10;;
33987;SDS011;37428;53.580;-1.666;2023-07-31T13:57:13;6.75;;;3.25;;
33987;SDS011;37428;53.580;-1.666;2023-07-31T14:03:19;6.53;;;2.63;;
33987;SDS011;37428;53.580;-1.666;2023-07-31T14:06:21;8.02;;;3.15;;
33987;SDS011;37428;53.580;-1.666;2023-07-31T14:09:25;6.32;;;3.10;;
33987;SDS011;37428;53.580;-1.666;2023-07-31T14:12:30;7.63;;;3.25;;
33987;SDS011;37428;53.580;-1.666;2023-07-31T14:15:34;5.60;;;2.40;;
33987;SDS011;37428;53.580;-1.666;2023-07-31T14:18:38;5.88;;;2.50;;
33987;SDS011;37428;53.580;-1.666;2023-07-31T14:21:41;7.70;;;2.60;;
33987;SDS011;37428;53.580;-1.666;2023-07-31T14:24:57;5.63;;;2.38;;
33987;SDS011;37428;53.580;-1.666;2023-07-31T14:28:01;8.48;;;2.78;;
33987;SDS011;37428;53.580;-1.666;2023-07-31T14:31:08;6.53;;;2.92;;
33987;SDS011;37428;53.580;-1.666;2023-07-31T14:34:11;7.35;;;2.75;;
33987;SDS011;37428;53.580;-1.666;2023-07-31T14:37:19;4.70;;;2.10;;
33987;SDS011;37428;53.580;-1.666;2023-07-31T14:40:23;3.70;;;2.03;;
33987;SDS011;37428;53.580;-1.666;2023-07-31T14:44:02;6.97;;;2.90;;
33987;SDS011;37428;53.580;-1.666;2023-07-31T14:46:59;3.72;;;2.42;;
33987;SDS011;37428;53.580;-1.666;2023-07-31T14:50:01;5.22;;;2.95;;
33987;SDS011;37428;53.580;-1.666;2023-07-31T14:53:03;3.58;;;2.40;;
33987;SDS011;37428;53.580;-1.666;2023-07-31T14:56:07;5.45;;;3.17;;
33987;SDS011;37428;53.580;-1.666;2023-07-31T14:59:23;6.40;;;2.60;;
33987;SDS011;37428;53.580;-1.666;2023-07-31T15:02:33;3.05;;;2.65;;
33987;SDS011;37428;53.580;-1.666;2023-07-31T15:05:36;1.75;;;1.55;;
33987;SDS011;37428;53.580;-1.666;2023-07-31T15:08:52;2.83;;;1.02;;
33987;SDS011;37428;53.580;-1.666;2023-07-31T15:12:08;1.13;;;0.70;;
33987;SDS011;37428;53.580;-1.666;2023-07-31T15:15:25;3.35;;;1.13;;
33987;SDS011;37428;53.580;-1.666;2023-07-31T15:18:28;2.25;;;1.02;;
33987;SDS011;37428;53.580;-1.666;2023-07-31T15:21:33;1.30;;;0.82;;
33987;SDS011;37428;53.580;-1.666;2023-07-31T15:24:37;3.00;;;1.10;;
33987;SDS011;37428;53.580;-1.666;2023-07-31T15:27:45;2.22;;;0.93;;
33987;SDS011;37428;53.580;-1.666;2023-07-31T15:30:59;1.98;;;0.77;;
33987;SDS011;37428;53.580;-1.666;2023-07-31T15:34:03;1.00;;;0.88;;
33987;SDS011;37428;53.580;-1.666;2023-07-31T15:37:07;1.58;;;1.13;;
33987;SDS011;37428;53.580;-1.666;2023-07-31T15:40:10;1.80;;;0.73;;
33987;SDS011;37428;53.580;-1.666;2023-07-31T15:43:12;1.38;;;1.25;;
33987;SDS011;37428;53.580;-1.666;2023-07-31T15:46:17;1.85;;;1.15;;
33987;SDS011;37428;53.580;-1.666;2023-07-31T15:49:36;1.70;;;1.00;;
33987;SDS011;37428;53.580;-1.666;2023-07-31T15:52:38;3.08;;;1.35;;
33987;SDS011;37428;53.580;-1.666;2023-07-31T15:55:41;3.90;;;1.50;;
33987;SDS011;37428;53.580;-1.666;2023-07-31T15:58:44;3.90;;;1.20;;
33987;SDS011;37428;53.580;-1.666;2023-07-31T16:01:49;1.77;;;1.30;;
33987;SDS011;37428;53.580;-1.666;2023-07-31T16:08:20;4.20;;;2.50;;
33987;SDS011;37428;53.580;-1.666;2023-07-31T16:11:24;3.03;;;1.30;;
33987;SDS011;37428;53.580;-1.666;2023-07-31T16:14:56;3.33;;;1.38;;
33987;SDS011;37428;53.580;-1.666;2023-07-31T16:17:58;2.45;;;1.10;;
33987;SDS011;37428;53.580;-1.666;2023-07-31T16:21:08;2.58;;;1.05;;
33987;SDS011;37428;53.580;-1.666;2023-07-31T16:24:11;6.22;;;1.50;;
33987;SDS011;37428;53.580;-1.666;2023-07-31T16:27:13;4.93;;;1.52;;
33987;SDS011;37428;53.580;-1.666;2023-07-31T16:30:18;2.40;;;1.60;;
33987;SDS011;37428;53.580;-1.666;2023-07-31T16:33:29;2.80;;;1.20;;
33987;SDS011;37428;53.580;-1.666;2023-07-31T16:36:38;3.15;;;1.35;;
33987;SDS011;37428;53.580;-1.666;2023-07-31T16:39:55;3.08;;;1.60;;
33987;SDS011;37428;53.580;-1.666;2023-07-31T16:43:11;2.83;;;1.10;;
33987;SDS011;37428;53.580;-1.666;2023-07-31T16:46:24;3.05;;;1.20;;
33987;SDS011;37428;53.580;-1.666;2023-07-31T16:49:32;2.85;;;1.00;;
33987;SDS011;37428;53.580;-1.666;2023-07-31T16:53:01;3.63;;;1.38;;
33987;SDS011;37428;53.580;-1.666;2023-07-31T16:56:06;3.63;;;1.02;;
33987;SDS011;37428;53.580;-1.666;2023-07-31T16:59:22;4.78;;;1.25;;
33987;SDS011;37428;53.580;-1.666;2023-07-31T17:02:26;3.50;;;1.25;;
33987;SDS011;37428;53.580;-1.666;2023-07-31T17:05:28;2.38;;;1.00;;
33987;SDS011;37428;53.580;-1.666;2023-07-31T17:08:32;3.83;;;1.70;;
33987;SDS011;37428;53.580;-1.666;2023-07-31T17:11:34;4.85;;;1.50;;
33987;SDS011;37428;53.580;-1.666;2023-07-31T17:14:38;4.22;;;1.20;;
33987;SDS011;37428;53.580;-1.666;2023-07-31T17:17:40;4.97;;;1.00;;
33987;SDS011;37428;53.580;-1.666;2023-07-31T17:20:49;3.88;;;1.50;;
33987;SDS011;37428;53.580;-1.666;2023-07-31T17:24:02;5.43;;;1.50;;
33987;SDS011;37428;53.580;-1.666;2023-07-31T17:27:05;4.38;;;1.80;;
33987;SDS011;37428;53.580;-1.666;2023-07-31T17:30:07;5.43;;;1.77;;
33987;SDS011;37428;53.580;-1.666;2023-07-31T17:33:32;5.82;;;2.40;;
33987;SDS011;37428;53.580;-1.666;2023-07-31T17:36:36;2.35;;;1.40;;
33987;SDS011;37428;53.580;-1.666;2023-07-31T17:39:48;3.88;;;1.27;;
33987;SDS011;37428;53.580;-1.666;2023-07-31T17:43:43;6.72;;;1.63;;
33987;SDS011;37428;53.580;-1.666;2023-07-31T17:46:36;3.08;;;1.17;;
33987;SDS011;37428;53.580;-1.666;2023-07-31T17:49:38;4.43;;;1.02;;
33987;SDS011;37428;53.580;-1.666;2023-07-31T17:53:01;2.50;;;1.15;;
33987;SDS011;37428;53.580;-1.666;2023-07-31T17:56:06;2.28;;;1.02;;
33987;SDS011;37428;53.580;-1.666;2023-07-31T17:59:40;2.75;;;1.20;;
33987;SDS011;37428;53.580;-1.666;2023-07-31T18:02:57;5.28;;;1.52;;
33987;SDS011;37428;53.580;-1.666;2023-07-31T18:06:00;2.83;;;1.02;;
33987;SDS011;37428;53.580;-1.666;2023-07-31T18:12:39;4.38;;;1.65;;
33987;SDS011;37428;53.580;-1.666;2023-07-31T18:15:55;4.18;;;1.75;;
33987;SDS011;37428;53.580;-1.666;2023-07-31T18:19:00;4.88;;;1.42;;
33987;SDS011;37428;53.580;-1.666;2023-07-31T18:22:03;4.22;;;1.35;;
33987;SDS011;37428;53.580;-1.666;2023-07-31T18:25:07;3.90;;;1.65;;
33987;SDS011;37428;53.580;-1.666;2023-07-31T18:28:32;5.28;;;1.58;;
33987;SDS011;37428;53.580;-1.666;2023-07-31T18:31:36;6.07;;;1.42;;
33987;SDS011;37428;53.580;-1.666;2023-07-31T18:34:51;4.38;;;1.60;;
33987;SDS011;37428;53.580;-1.666;2023-07-31T18:38:22;3.25;;;1.50;;
33987;SDS011;37428;53.580;-1.666;2023-07-31T18:42:07;6.32;;;1.50;;
33987;SDS011;37428;53.580;-1.666;2023-07-31T18:45:18;3.35;;;1.30;;
33987;SDS011;37428;53.580;-1.666;2023-07-31T18:48:44;4.53;;;1.42;;
33987;SDS011;37428;53.580;-1.666;2023-07-31T18:51:48;4.10;;;1.33;;
33987;SDS011;37428;53.580;-1.666;2023-07-31T18:54:50;2.85;;;1.10;;
33987;SDS011;37428;53.580;-1.666;2023-07-31T18:57:54;3.88;;;1.30;;
33987;SDS011;37428;53.580;-1.666;2023-07-31T19:01:02;3.55;;;1.20;;
33987;SDS011;37428;53.580;-1.666;2023-07-31T19:04:37;2.47;;;1.05;;
33987;SDS011;37428;53.580;-1.666;2023-07-31T19:07:43;2.55;;;1.40;;
33987;SDS011;37428;53.580;-1.666;2023-07-31T19:11:01;2.13;;;1.65;;
33987;SDS011;37428;53.580;-1.666;2023-07-31T19:21:45;1.65;;;1.20;;
33987;SDS011;37428;53.580;-1.666;2023-07-31T19:25:20;2.25;;;1.10;;
33987;SDS011;37428;53.580;-1.666;2023-07-31T19:28:42;4.57;;;1.75;;
33987;SDS011;37428;53.580;-1.666;2023-07-31T19:31:49;1.38;;;1.13;;
33987;SDS011;37428;53.580;-1.666;2023-07-31T19:35:05;3.55;;;1.10;;
33987;SDS011;37428;53.580;-1.666;2023-07-31T19:38:27;0.85;;;0.70;;
33987;SDS011;37428;53.580;-1.666;2023-07-31T19:41:29;0.70;;;0.47;;
33987;SDS011;37428;53.580;-1.666;2023-07-31T19:44:32;0.90;;;0.52;;